createdAt,value
2023-04-09T00:02:26.949Z,101514.96
2023-04-09T00:05:59.189Z,101515.80
2023-04-09T00:09:22.261Z,101519.42
2023-04-09T00:13:10.474Z,101515.48
2023-04-09T00:16:38.686Z,101517.36
2023-04-09T00:20:20.720Z,101515.11
2023-04-09T00:23:49.067Z,101517.89
2023-04-09T00:27:23.726Z,101517.36
2023-04-09T00:31:06.816Z,101514.08
2023-04-09T00:34:55.999Z,101512.34
2023-04-09T00:38:28.471Z,101508.88
2023-04-09T00:42:06.678Z,101512.85
2023-04-09T00:45:49.936Z,101514.02
2023-04-09T00:49:38.264Z,101515.92
2023-04-09T00:52:58.778Z,101511.39
2023-04-09T00:56:25.912Z,101507.52
2023-04-09T01:00:15.195Z,101509.20
2023-04-09T01:03:58.321Z,101512.29
2023-04-09T01:07:42.567Z,101515.71
2023-04-09T01:11:35.444Z,101516.55
2023-04-09T01:15:52.307Z,101514.45
2023-04-09T01:19:40.966Z,101514.40
2023-04-09T01:23:36.110Z,101516.63
2023-04-09T01:27:32.141Z,101517.30
2023-04-09T01:49:52.520Z,101510.78
2023-04-09T01:53:28.589Z,101511.98
2023-04-09T01:57:26.613Z,101510.41
2023-04-09T02:01:17.824Z,101507.79
2023-04-09T02:05:06.786Z,101509.33
2023-04-09T02:08:47.965Z,101510.20
2023-04-09T02:12:30.682Z,101512.80
2023-04-09T02:16:11.074Z,101509.00
2023-04-09T02:20:00.425Z,101513.84
2023-04-09T02:23:49.610Z,101516.27
2023-04-09T02:27:24.732Z,101518.35
2023-04-09T02:31:14.034Z,101519.72
2023-04-09T02:35:03.167Z,101521.23
2023-04-09T02:38:19.477Z,101521.56
2023-04-09T02:42:02.701Z,101520.15
2023-04-09T02:45:52.206Z,101519.60
2023-04-09T02:49:40.309Z,101520.25
2023-04-09T02:53:29.808Z,101521.09
2023-04-09T02:57:12.706Z,101516.40
2023-04-09T03:00:52.826Z,101511.39
2023-04-09T03:04:41.959Z,101509.15
2023-04-09T03:08:16.569Z,101509.14
2023-04-09T03:12:08.422Z,101516.70
2023-04-09T03:15:57.870Z,101514.06
2023-04-09T03:19:47.174Z,101514.03
2023-04-09T03:23:38.817Z,101508.29
2023-04-09T03:27:28.075Z,101507.73
2023-04-09T03:31:17.392Z,101509.79
2023-04-09T03:35:06.466Z,101509.39
2023-04-09T03:38:55.379Z,101508.31
2023-04-09T03:42:38.201Z,101504.30
2023-04-09T03:46:27.413Z,101503.91
2023-04-09T03:50:16.548Z,101501.45
2023-04-09T03:54:05.714Z,101506.26
2023-04-09T03:57:54.835Z,101503.68
2023-04-09T04:01:44.244Z,101501.79
2023-04-09T04:05:34.767Z,101502.66
2023-04-09T04:09:22.286Z,101505.23
2023-04-09T04:13:04.232Z,101507.77
2023-04-09T04:20:10.683Z,101506.08
2023-04-09T04:24:07.745Z,101507.92
2023-04-09T04:35:30.805Z,101516.73
2023-04-09T04:53:31.880Z,101523.36
2023-04-09T05:29:27.425Z,101527.84
2023-04-09T05:32:25.218Z,101526.30
2023-04-09T05:35:40.662Z,101524.08
2023-04-09T05:38:35.536Z,101518.89
2023-04-09T05:41:53.065Z,101517.56
2023-04-09T05:45:28.129Z,101519.51
2023-04-09T05:48:43.316Z,101517.98
2023-04-09T05:51:59.698Z,101523.73
2023-04-09T05:55:05.543Z,101520.47
2023-04-09T05:58:54.894Z,101525.98
2023-04-09T06:01:57.750Z,101528.26
2023-04-09T06:05:20.785Z,101530.70
2023-04-09T06:08:47.407Z,101536.39
2023-04-09T06:11:54.993Z,101544.55
2023-04-09T06:15:22.218Z,101542.16
2023-04-09T06:18:28.006Z,101542.71
2023-04-09T06:21:24.651Z,101539.64
2023-04-09T06:24:29.345Z,101541.40
2023-04-09T06:27:58.163Z,101539.17
2023-04-09T06:31:47.441Z,101540.61
2023-04-09T06:35:35.738Z,101540.98
2023-04-09T06:39:23.830Z,101542.06
2023-04-09T06:43:13.012Z,101543.30
2023-04-09T06:46:47.793Z,101547.30
2023-04-09T06:50:29.736Z,101551.84
2023-04-09T06:53:55.948Z,101548.25
2023-04-09T06:57:35.615Z,101546.88
2023-04-09T07:01:07.895Z,101547.95
2023-04-09T07:04:48.387Z,101549.02
2023-04-09T07:08:23.098Z,101550.08
2023-04-09T07:11:50.560Z,101560.33
2023-04-09T07:15:22.823Z,101567.09
2023-04-09T07:18:52.947Z,101562.23
2023-04-09T07:22:09.556Z,101560.48
2023-04-09T07:25:43.699Z,101562.39
2023-04-09T07:29:15.941Z,101562.92
2023-04-09T07:32:46.717Z,101552.16
2023-04-09T07:36:28.380Z,101548.52
2023-04-09T07:40:02.811Z,101547.13
2023-04-09T07:43:44.501Z,101548.17
2023-04-09T07:47:19.032Z,101551.81
2023-04-09T07:51:08.713Z,101549.02
2023-04-09T07:54:37.239Z,101553.02
2023-04-09T07:58:16.952Z,101562.21
2023-04-09T08:01:39.667Z,101555.79
2023-04-09T08:04:59.002Z,101549.37
2023-04-09T08:08:26.737Z,101545.71
2023-04-09T08:12:03.938Z,101548.66
2023-04-09T08:15:27.404Z,101559.94
2023-04-09T08:18:49.845Z,101566.01
2023-04-09T08:22:02.759Z,101567.89
2023-04-09T08:25:26.538Z,101572.90
2023-04-09T08:29:14.691Z,101575.33
2023-04-09T08:32:48.354Z,101578.60
2023-04-09T08:36:03.097Z,101578.55
2023-04-09T08:39:27.858Z,101575.23
2023-04-09T08:42:55.320Z,101557.95
2023-04-09T08:46:27.948Z,101559.98
2023-04-09T08:49:44.003Z,101561.81
2023-04-09T08:52:42.886Z,101556.52
2023-04-09T08:56:01.436Z,101548.49
2023-04-09T08:59:14.047Z,101548.64
2023-04-09T09:02:34.956Z,101545.41
2023-04-09T09:06:00.884Z,101546.31
2023-04-09T09:09:48.104Z,101555.91
2023-04-09T09:13:02.764Z,101554.15
2023-04-09T09:16:45.799Z,101555.52
2023-04-09T09:19:57.832Z,101556.16
2023-04-09T09:23:29.961Z,101559.56
2023-04-09T09:27:03.101Z,101555.02
2023-04-09T09:30:10.246Z,101552.93
2023-04-09T09:33:48.264Z,101551.73
2023-04-09T09:37:05.098Z,101552.61
2023-04-09T09:40:23.210Z,101549.48
2023-04-09T09:43:47.703Z,101548.77
2023-04-09T09:47:09.643Z,101545.56
2023-04-09T09:50:21.022Z,101541.80
2023-04-09T09:53:23.249Z,101544.95
2023-04-09T09:56:53.825Z,101545.86
2023-04-09T10:00:05.143Z,101551.41
2023-04-09T10:03:44.660Z,101550.90
2023-04-09T10:06:52.200Z,101547.64
2023-04-09T10:10:05.985Z,101545.01
2023-04-09T10:13:27.111Z,101543.15
2023-04-09T10:16:27.206Z,101542.95
2023-04-09T10:19:37.888Z,101546.13
2023-04-09T10:22:43.948Z,101545.09
2023-04-09T10:25:55.435Z,101542.14
2023-04-09T10:29:22.898Z,101543.34
2023-04-09T10:32:37.234Z,101543.34
2023-04-09T10:35:39.361Z,101538.83
2023-04-09T10:38:42.201Z,101538.70
2023-04-09T10:42:04.445Z,101532.81
2023-04-09T10:45:28.833Z,101532.77
2023-04-09T10:48:36.433Z,101530.29
2023-04-09T10:51:49.500Z,101529.25
2023-04-09T10:55:19.477Z,101527.02
2023-04-09T10:58:54.722Z,101524.20
2023-04-09T11:02:17.328Z,101521.86
2023-04-09T11:05:49.783Z,101520.02
2023-04-09T11:12:45.702Z,101520.25
2023-04-09T11:15:45.017Z,101521.13
2023-04-09T11:19:03.148Z,101519.86
2023-04-09T11:22:13.809Z,101521.88
2023-04-09T11:25:21.010Z,101521.31
2023-04-09T11:28:48.169Z,101520.05
2023-04-09T11:32:10.997Z,101520.89
2023-04-09T11:35:28.524Z,101514.95
2023-04-09T11:38:25.471Z,101510.94
2023-04-09T11:42:13.822Z,101510.08
2023-04-09T11:45:24.803Z,101505.61
2023-04-09T11:48:28.608Z,101506.21
2023-04-09T11:51:54.629Z,101506.91
2023-04-09T11:54:46.164Z,101511.77
2023-04-09T11:58:18.639Z,101514.70
2023-04-09T12:01:39.220Z,101514.67
2023-04-09T12:05:04.441Z,101515.53
2023-04-09T12:08:23.901Z,101515.91
2023-04-09T12:11:38.480Z,101512.81
2023-04-09T12:14:39.417Z,101512.70
2023-04-09T12:17:51.227Z,101515.03
2023-04-09T12:21:04.981Z,101512.23
2023-04-09T12:24:07.942Z,101512.86
2023-04-09T12:27:14.924Z,101511.48
2023-04-09T12:30:17.705Z,101515.46
2023-04-09T12:33:10.943Z,101515.60
2023-04-09T12:36:51.949Z,101513.34
2023-04-09T12:39:49.817Z,101514.57
2023-04-09T12:42:57.920Z,101510.35
2023-04-09T12:45:58.231Z,101507.54
2023-04-09T12:49:00.314Z,101505.36
2023-04-09T12:52:09.650Z,101504.49
2023-04-09T12:55:01.168Z,101500.70
2023-04-09T12:58:09.690Z,101501.54
2023-04-09T13:01:01.585Z,101501.45
2023-04-09T13:04:11.333Z,101506.03
2023-04-09T13:07:05.545Z,101502.67
2023-04-09T13:10:17.881Z,101501.96
2023-04-09T13:13:12.044Z,101503.08
2023-04-09T13:16:12.768Z,101504.03
2023-04-09T13:19:01.728Z,101502.61
2023-04-09T13:22:07.994Z,101503.09
2023-04-09T13:25:16.942Z,101499.94
2023-04-09T13:28:17.759Z,101500.23
2023-04-09T13:31:27.682Z,101501.20
2023-04-09T13:34:57.117Z,101504.08
2023-04-09T13:38:19.470Z,101506.27
2023-04-09T13:41:18.458Z,101506.39
2023-04-09T13:44:32.910Z,101507.09
2023-04-09T13:47:07.632Z,101506.25
2023-04-09T13:50:48.203Z,101509.95
2023-04-09T13:54:13.143Z,101512.82
2023-04-09T13:57:11.294Z,101511.57
2023-04-09T14:00:11.834Z,101506.62
2023-04-09T14:03:18.781Z,101505.98
2023-04-09T14:06:39.399Z,101505.77
2023-04-09T14:09:27.129Z,101503.27
2023-04-09T14:12:25.911Z,101504.06
2023-04-09T14:15:20.616Z,101496.45
2023-04-09T14:18:08.424Z,101495.92
2023-04-09T14:20:55.258Z,101499.26
2023-04-09T14:23:57.290Z,101494.30
2023-04-09T14:27:09.525Z,101491.94
2023-04-09T14:29:47.322Z,101488.91
2023-04-09T14:33:03.045Z,101494.97
2023-04-09T14:35:54.912Z,101489.69
2023-04-09T14:38:58.434Z,101487.52
2023-04-09T14:41:54.566Z,101480.86
2023-04-09T14:44:52.324Z,101482.52
2023-04-09T14:47:38.381Z,101474.73
2023-04-09T14:50:28.504Z,101475.63
2023-04-09T14:53:30.163Z,101473.72
2023-04-09T14:56:36.271Z,101472.48
2023-04-09T14:59:21.190Z,101468.80
2023-04-09T15:02:39.686Z,101466.48
2023-04-09T15:05:31.675Z,101465.94
2023-04-09T15:08:17.048Z,101464.40
2023-04-09T15:11:15.948Z,101460.35
2023-04-09T15:14:11.976Z,101462.72
2023-04-09T15:17:13.023Z,101462.67
2023-04-09T15:20:24.902Z,101463.27
2023-04-09T15:23:23.078Z,101465.04
2023-04-09T15:26:14.368Z,101469.55
2023-04-09T15:29:00.119Z,101470.76
2023-04-09T15:31:51.229Z,101473.81
2023-04-09T15:34:50.738Z,101472.27
2023-04-09T15:37:48.870Z,101477.48
2023-04-09T15:40:46.425Z,101476.61
2023-04-09T15:43:45.214Z,101475.14
2023-04-09T15:46:51.459Z,101476.80
2023-04-09T15:49:59.287Z,101474.23
2023-04-09T15:53:00.017Z,101473.92
2023-04-09T15:55:49.695Z,101473.11
2023-04-09T15:58:55.016Z,101472.09
2023-04-09T16:02:12.308Z,101464.78
2023-04-09T16:05:04.905Z,101466.27
2023-04-09T16:07:59.978Z,101468.46
2023-04-09T16:11:02.076Z,101468.16
2023-04-09T16:13:56.268Z,101468.33
2023-04-09T16:16:53.458Z,101460.52
2023-04-09T16:20:01.851Z,101465.84
2023-04-09T16:23:09.009Z,101465.30
2023-04-09T16:26:05.652Z,101465.61
2023-04-09T16:29:34.034Z,101466.73
2023-04-09T16:32:50.970Z,101464.36
2023-04-09T16:35:50.352Z,101461.98
2023-04-09T16:39:05.075Z,101461.70
2023-04-09T16:42:18.650Z,101458.46
2023-04-09T16:45:11.601Z,101460.77
2023-04-09T16:48:21.394Z,101457.01
2023-04-09T16:51:17.109Z,101461.94
2023-04-09T16:54:37.801Z,101458.52
2023-04-09T16:57:36.198Z,101458.36
2023-04-09T17:00:56.564Z,101458.19
2023-04-09T17:04:02.966Z,101454.21
2023-04-09T17:06:59.607Z,101454.62
2023-04-09T17:10:09.240Z,101457.43
2023-04-09T17:13:17.200Z,101453.68
2023-04-09T17:16:18.445Z,101452.66
2023-04-09T17:19:37.327Z,101457.64
2023-04-09T17:22:48.604Z,101463.14
2023-04-09T17:26:05.474Z,101464.42
2023-04-09T17:29:25.655Z,101467.98
2023-04-09T17:32:39.943Z,101471.52
2023-04-09T17:35:54.052Z,101470.70
2023-04-09T17:39:26.377Z,101476.16
2023-04-09T17:42:57.013Z,101472.92
2023-04-09T17:46:15.315Z,101478.20
2023-04-09T17:49:17.503Z,101481.90
2023-04-09T17:52:40.899Z,101481.61
2023-04-09T17:56:08.882Z,101482.75
2023-04-09T17:59:08.866Z,101476.69
2023-04-09T18:01:58.188Z,101480.09
2023-04-09T18:05:06.489Z,101485.39
2023-04-09T18:08:02.418Z,101487.02
2023-04-09T18:11:13.205Z,101486.20
2023-04-09T18:14:22.187Z,101486.20
2023-04-09T18:17:42.744Z,101486.55
2023-04-09T18:21:04.521Z,101489.42
2023-04-09T18:24:37.599Z,101499.10
2023-04-09T18:27:36.194Z,101503.91
2023-04-09T18:30:50.873Z,101507.80
2023-04-09T18:33:48.836Z,101512.23
2023-04-09T18:37:00.725Z,101517.13
2023-04-09T18:40:20.839Z,101521.52
2023-04-09T18:43:27.794Z,101524.16
2023-04-09T18:46:28.599Z,101527.30
2023-04-09T18:49:30.499Z,101529.05
2023-04-09T18:52:37.998Z,101529.92
2023-04-09T18:55:30.758Z,101532.54
2023-04-09T18:58:51.965Z,101532.15
2023-04-09T19:01:55.597Z,101533.17
2023-04-09T19:05:14.319Z,101536.28
2023-04-09T19:08:22.629Z,101535.39
2023-04-09T19:11:34.123Z,101536.84
2023-04-09T19:14:40.693Z,101529.55
2023-04-09T19:17:43.324Z,101529.91
2023-04-09T19:20:46.461Z,101530.61
2023-04-09T19:23:49.551Z,101532.19
2023-04-09T19:26:42.611Z,101531.16
2023-04-09T19:29:53.685Z,101531.84
2023-04-09T19:32:53.376Z,101535.49
2023-04-09T19:35:58.255Z,101537.29
2023-04-09T19:39:18.853Z,101536.41
2023-04-09T19:42:28.803Z,101537.94
2023-04-09T19:45:23.072Z,101540.71
2023-04-09T19:48:28.419Z,101545.83
2023-04-09T19:51:39.889Z,101543.98
2023-04-09T19:54:58.371Z,101548.56
2023-04-09T19:58:26.261Z,101544.95
2023-04-09T20:01:39.926Z,101546.40
2023-04-09T20:04:55.742Z,101547.13
2023-04-09T20:08:03.267Z,101549.08
2023-04-09T20:11:11.855Z,101550.48
2023-04-09T20:14:38.293Z,101547.73
2023-04-09T20:17:46.321Z,101551.21
2023-04-09T20:21:14.554Z,101555.95
2023-04-09T20:24:38.758Z,101554.21
2023-04-09T20:27:48.511Z,101554.92
2023-04-09T20:31:25.425Z,101555.64
2023-04-09T20:34:48.251Z,101561.58
2023-04-09T20:37:56.664Z,101559.67
2023-04-09T20:41:08.454Z,101558.82
2023-04-09T20:44:39.642Z,101556.06
2023-04-09T20:47:58.402Z,101554.16
2023-04-09T20:51:18.962Z,101553.45
2023-04-09T20:54:30.342Z,101554.70
2023-04-09T20:57:37.841Z,101551.03
2023-04-09T21:01:09.932Z,101548.77
2023-04-09T21:04:30.386Z,101551.38
2023-04-09T21:07:41.175Z,101552.77
2023-04-09T21:11:09.992Z,101556.44
2023-04-09T21:14:14.897Z,101557.50
2023-04-09T21:17:40.266Z,101560.12
2023-04-09T21:20:59.487Z,101556.66
2023-04-09T21:24:39.134Z,101554.38
2023-04-09T21:27:56.057Z,101550.38
2023-04-09T21:31:24.889Z,101554.39
2023-04-09T21:34:18.928Z,101553.15
2023-04-09T21:37:32.156Z,101549.34
2023-04-09T21:40:53.582Z,101553.33
2023-04-09T21:44:41.725Z,101548.63
2023-04-09T21:48:09.302Z,101549.16
2023-04-09T21:51:34.024Z,101545.83
2023-04-09T21:55:00.540Z,101547.92
2023-04-09T21:58:12.418Z,101546.19
2023-04-09T22:01:28.616Z,101546.38
2023-04-09T22:04:35.198Z,101542.55
2023-04-09T22:07:40.231Z,101540.48
2023-04-09T22:10:55.813Z,101535.27
2023-04-09T22:14:20.126Z,101536.84
2023-04-09T22:17:23.028Z,101536.33
2023-04-09T22:20:53.616Z,101532.67
2023-04-09T22:24:27.228Z,101527.11
2023-04-09T22:27:48.545Z,101525.77
2023-04-09T22:31:20.051Z,101529.34
2023-04-09T22:34:50.001Z,101531.52
2023-04-09T22:38:05.402Z,101535.79
2023-04-09T22:41:42.686Z,101540.08
2023-04-09T22:45:03.698Z,101541.22
2023-04-09T22:48:14.262Z,101546.16
2023-04-09T22:51:50.002Z,101551.80
2023-04-09T22:55:26.385Z,101554.80
2023-04-09T22:58:49.651Z,101555.87
2023-04-09T23:02:23.430Z,101552.40
2023-04-09T23:05:48.054Z,101557.26
2023-04-09T23:09:15.620Z,101557.44
2023-04-09T23:12:20.657Z,101557.61
2023-04-09T23:15:50.798Z,101558.82
2023-04-09T23:19:15.474Z,101560.74
2023-04-09T23:22:56.154Z,101561.23
2023-04-09T23:26:11.625Z,101558.27
2023-04-09T23:29:36.219Z,101558.63
2023-04-09T23:32:51.833Z,101556.52
2023-04-09T23:36:37.464Z,101553.91
2023-04-09T23:40:19.468Z,101557.00
2023-04-09T23:43:41.636Z,101553.17
2023-04-09T23:47:09.558Z,101552.30
2023-04-09T23:50:33.586Z,101549.65
2023-04-09T23:54:04.935Z,101546.50
2023-04-09T23:57:29.851Z,101541.95
